Time;durP1;ratioP1;P1;durP2;ratioP2;P2;SDS_P1;SDS_P2;PMS_P1;PMS_P2;Temp;Humidity;BMP_temperature;BMP_pressure;BME280_temperature;BME280_humidity;BME280_pressure;Samples;Min_cycle;Max_cycle;Signal;HPM_P1;HPM_P2
2022/05/04 00:01:47;;;;;;;27.57;25.20;;;;;;;;;;5073479;28;21094;-86
2022/05/04 00:04:14;;;;;;;26.37;24.60;;;;;;;;;;5073554;28;20421;-86
2022/05/04 00:06:41;;;;;;;25.30;23.50;;;;;;;;;;5073335;28;20492;-85
2022/05/04 00:09:09;;;;;;;28.60;25.80;;;;;;;;;;5073633;28;20936;-86
2022/05/04 00:11:36;;;;;;;26.33;24.13;;;;;;;;;;5073672;28;20434;-86
2022/05/04 00:14:05;;;;;;;26.63;24.53;;;;;;;;;;5073411;28;20907;-86
2022/05/04 00:16:32;;;;;;;26.47;24.10;;;;;;;;;;5073719;28;20745;-85
2022/05/04 00:19:00;;;;;;;26.73;24.50;;;;;;;;;;5073113;28;20476;-86
2022/05/04 00:21:27;;;;;;;26.63;24.50;;;;;;;;;;5073533;28;20443;-86
2022/05/04 00:23:54;;;;;;;27.17;25.13;;;;;;;;;;5091287;28;20482;-86
2022/05/04 00:26:22;;;;;;;28.93;26.23;;;;;;;;;;5077552;28;20421;-84
2022/05/04 00:28:49;;;;;;;26.13;24.13;;;;;;;;;;5077269;28;20409;-87
2022/05/04 00:31:18;;;;;;;26.83;24.60;;;;;;;;;;5077339;28;20454;-86
2022/05/04 00:33:46;;;;;;;26.70;24.67;;;;;;;;;;5077450;28;20425;-86
2022/05/04 00:36:13;;;;;;;27.00;24.90;;;;;;;;;;5093036;28;20448;-86
2022/05/04 00:38:41;;;;;;;27.87;25.33;;;;;;;;;;5077764;28;20401;-86
2022/05/04 00:41:08;;;;;;;27.03;24.70;;;;;;;;;;5077421;28;20434;-86
2022/05/04 00:43:35;;;;;;;26.77;24.57;;;;;;;;;;5092683;28;20469;-86
2022/05/04 00:46:03;;;;;;;28.20;25.30;;;;;;;;;;5077191;28;20409;-86
2022/05/04 00:48:32;;;;;;;27.17;24.80;;;;;;;;;;5077145;28;20434;-86
2022/05/04 00:50:59;;;;;;;27.20;24.30;;;;;;;;;;5076864;28;20899;-85
2022/05/04 00:53:26;;;;;;;26.50;24.20;;;;;;;;;;5076751;28;20438;-86
2022/05/04 00:55:56;;;;;;;25.90;24.00;;;;;;;;;;5076616;28;20436;-86
2022/05/04 01:01:09;;;;;;;27.20;24.70;;;;;;;;;;5076749;28;20421;-86
2022/05/04 01:03:38;;;;;;;27.73;25.40;;;;;;;;;;5076430;28;20478;-86
2022/05/04 01:06:05;;;;;;;26.50;24.00;;;;;;;;;;5076794;28;20551;-86
2022/05/04 01:08:33;;;;;;;27.20;24.33;;;;;;;;;;5076935;28;20417;-87
2022/05/04 01:11:00;;;;;;;25.80;23.70;;;;;;;;;;5076485;28;20492;-85
2022/05/04 01:13:28;;;;;;;26.80;24.40;;;;;;;;;;5076433;28;20413;-86
2022/05/04 01:15:55;;;;;;;26.93;24.73;;;;;;;;;;5076325;28;20470;-85
2022/05/04 01:18:22;;;;;;;26.90;24.70;;;;;;;;;;5075688;28;20863;-86
2022/05/04 01:20:51;;;;;;;26.10;24.10;;;;;;;;;;5076641;28;20910;-86
2022/05/04 01:23:20;;;;;;;25.97;23.80;;;;;;;;;;5076381;28;20837;-86
2022/05/04 01:25:48;;;;;;;26.77;24.50;;;;;;;;;;5076192;28;20421;-85
2022/05/04 01:28:15;;;;;;;27.10;24.50;;;;;;;;;;5076462;28;20492;-86
2022/05/04 01:30:42;;;;;;;27.10;24.40;;;;;;;;;;5076487;28;20771;-86
2022/05/04 01:33:10;;;;;;;27.27;24.93;;;;;;;;;;5075963;28;20928;-86
2022/05/04 01:35:38;;;;;;;27.00;24.60;;;;;;;;;;5075754;28;20813;-85
2022/05/04 01:38:06;;;;;;;25.50;23.53;;;;;;;;;;5076279;28;20449;-87
2022/05/04 01:40:34;;;;;;;27.17;24.70;;;;;;;;;;5076209;28;20425;-85
2022/05/04 01:43:02;;;;;;;25.40;22.93;;;;;;;;;;5076372;28;21052;-86
2022/05/04 01:45:29;;;;;;;26.83;24.77;;;;;;;;;;5076186;28;20421;-86
2022/05/04 01:47:56;;;;;;;27.10;24.57;;;;;;;;;;5075984;28;20435;-87
2022/05/04 01:50:24;;;;;;;26.23;24.33;;;;;;;;;;5076087;28;20447;-87
2022/05/04 01:52:51;;;;;;;26.87;24.50;;;;;;;;;;5075762;28;20416;-86
2022/05/04 01:55:19;;;;;;;26.13;24.10;;;;;;;;;;5076326;28;20412;-86
2022/05/04 01:57:48;;;;;;;26.87;24.70;;;;;;;;;;5075458;28;20461;-86
2022/05/04 02:00:15;;;;;;;28.30;25.93;;;;;;;;;;5075859;28;20421;-86
2022/05/04 02:02:43;;;;;;;26.73;24.33;;;;;;;;;;5075529;28;20478;-86
2022/05/04 02:05:11;;;;;;;26.67;24.57;;;;;;;;;;5075691;28;20467;-86
2022/05/04 02:07:38;;;;;;;27.33;24.93;;;;;;;;;;5075696;28;20500;-86
2022/05/04 02:10:06;;;;;;;25.90;23.73;;;;;;;;;;5075363;28;20431;-87
2022/05/04 02:12:34;;;;;;;27.63;25.27;;;;;;;;;;5075709;28;20826;-86
2022/05/04 02:15:03;;;;;;;26.10;24.20;;;;;;;;;;5075471;28;20410;-86
2022/05/04 02:17:31;;;;;;;26.33;24.23;;;;;;;;;;5075158;28;20445;-86
2022/05/04 02:19:58;;;;;;;25.70;23.80;;;;;;;;;;5075033;28;20875;-86
2022/05/04 02:22:25;;;;;;;26.80;24.43;;;;;;;;;;5074060;28;20442;-86
2022/05/04 02:24:53;;;;;;;26.97;24.83;;;;;;;;;;5092937;28;20471;-86
2022/05/04 02:27:20;;;;;;;28.73;25.30;;;;;;;;;;5095849;28;20415;-86
2022/05/04 02:29:48;;;;;;;26.50;24.23;;;;;;;;;;5077195;28;20438;-87
2022/05/04 02:32:17;;;;;;;27.20;24.90;;;;;;;;;;5075274;28;20438;-86
2022/05/04 02:40:14;;;;;;;25.73;23.90;;;;;;;;;;5075051;28;20411;-86
2022/05/04 02:42:41;;;;;;;27.10;24.37;;;;;;;;;;5074758;28;20851;-86
2022/05/04 02:45:10;;;;;;;27.30;25.23;;;;;;;;;;5074929;28;20488;-86
2022/05/04 02:47:41;;;;;;;26.83;24.50;;;;;;;;;;5073727;28;20453;-86
2022/05/04 02:50:09;;;;;;;25.33;23.50;;;;;;;;;;5074744;28;20405;-85
2022/05/04 02:52:36;;;;;;;26.47;24.07;;;;;;;;;;5074544;28;20994;-86
2022/05/04 02:55:04;;;;;;;27.70;25.27;;;;;;;;;;5090420;28;20420;-86
2022/05/04 02:57:31;;;;;;;25.80;23.77;;;;;;;;;;5074406;28;20482;-86
2022/05/04 02:59:58;;;;;;;26.33;24.50;;;;;;;;;;5074299;28;20430;-86
2022/05/04 03:02:29;;;;;;;26.70;24.70;;;;;;;;;;5074851;28;20439;-86
2022/05/04 03:04:58;;;;;;;26.87;24.13;;;;;;;;;;5074403;28;20460;-86
2022/05/04 03:07:26;;;;;;;25.60;23.87;;;;;;;;;;5074588;28;20434;-86
2022/05/04 03:09:53;;;;;;;27.90;25.35;;;;;;;;;;5074620;27;20520;-86
2022/05/04 03:12:20;;;;;;;25.80;23.57;;;;;;;;;;5074475;28;20188;-86
2022/05/04 03:14:48;;;;;;;26.50;24.13;;;;;;;;;;5074214;28;20519;-86
2022/05/04 03:17:15;;;;;;;26.97;24.53;;;;;;;;;;5074275;28;20520;-86
2022/05/04 03:19:42;;;;;;;26.50;23.90;;;;;;;;;;5074393;28;20430;-86
2022/05/04 03:22:11;;;;;;;24.80;23.00;;;;;;;;;;5074532;28;20478;-87
2022/05/04 03:24:39;;;;;;;27.80;25.40;;;;;;;;;;5074133;28;20981;-87
2022/05/04 03:27:07;;;;;;;24.70;23.10;;;;;;;;;;5074384;28;20469;-86
2022/05/04 03:29:34;;;;;;;28.03;25.47;;;;;;;;;;5073774;28;20434;-86
2022/05/04 03:32:03;;;;;;;26.27;24.03;;;;;;;;;;5074433;28;20758;-86
2022/05/04 03:34:30;;;;;;;25.87;23.90;;;;;;;;;;5074355;28;20442;-87
2022/05/04 03:36:59;;;;;;;27.93;25.47;;;;;;;;;;5073942;28;20434;-86
2022/05/04 03:39:27;;;;;;;26.70;24.63;;;;;;;;;;5073680;28;20902;-86
2022/05/04 03:41:55;;;;;;;25.40;23.33;;;;;;;;;;5073788;28;20463;-86
2022/05/04 03:44:22;;;;;;;27.92;25.25;;;;;;;;;;5073976;28;20486;-86
2022/05/04 03:46:51;;;;;;;27.57;24.83;;;;;;;;;;5073698;28;20196;-86
2022/05/04 03:49:20;;;;;;;25.03;23.10;;;;;;;;;;5073681;28;20442;-86
2022/05/04 03:51:48;;;;;;;26.10;24.07;;;;;;;;;;5073945;28;20442;-85
2022/05/04 03:54:15;;;;;;;27.30;25.10;;;;;;;;;;5074135;28;20773;-86
2022/05/04 03:56:44;;;;;;;26.97;24.20;;;;;;;;;;5073613;28;20449;-86
2022/05/04 03:59:11;;;;;;;35.58;24.60;;;;;;;;;;5073025;28;20450;-82
2022/05/04 04:01:39;;;;;;;27.63;25.23;;;;;;;;;;5073039;28;20254;-82
2022/05/04 04:04:06;;;;;;;25.63;23.43;;;;;;;;;;5072800;28;20882;-82
2022/05/04 04:06:34;;;;;;;26.23;23.83;;;;;;;;;;5072667;28;20874;-82
2022/05/04 04:09:01;;;;;;;25.20;22.95;;;;;;;;;;5072547;28;20196;-82
2022/05/04 04:11:29;;;;;;;24.17;22.33;;;;;;;;;;5072525;28;20199;-82
2022/05/04 04:13:58;;;;;;;25.20;23.30;;;;;;;;;;5072663;28;20436;-82
2022/05/04 04:16:25;;;;;;;26.90;24.77;;;;;;;;;;5072751;28;20448;-82
2022/05/04 04:18:53;;;;;;;25.55;23.25;;;;;;;;;;5072441;28;20421;-82
2022/05/04 04:24:05;;;;;;;29.43;25.23;;;;;;;;;;5072356;28;20477;-82
2022/05/04 04:26:33;;;;;;;25.93;23.70;;;;;;;;;;5072671;28;20450;-82
2022/05/04 04:29:02;;;;;;;27.10;24.70;;;;;;;;;;5072278;28;20440;-82
2022/05/04 04:31:29;;;;;;;24.70;22.80;;;;;;;;;;5072488;28;20438;-83
2022/05/04 04:33:57;;;;;;;26.73;24.27;;;;;;;;;;5072575;28;21117;-82
2022/05/04 04:36:24;;;;;;;26.67;23.70;;;;;;;;;;5072119;28;20405;-83
2022/05/04 04:38:52;;;;;;;25.90;23.90;;;;;;;;;;5072234;28;20434;-82
2022/05/04 04:41:19;;;;;;;26.40;23.90;;;;;;;;;;5072537;28;20913;-81
2022/05/04 04:43:46;;;;;;;25.00;22.70;;;;;;;;;;5072386;28;20525;-82
2022/05/04 04:46:15;;;;;;;24.73;22.73;;;;;;;;;;5072365;28;20443;-82
2022/05/04 04:48:42;;;;;;;26.23;23.73;;;;;;;;;;5072363;28;20442;-82
2022/05/04 04:51:10;;;;;;;26.67;24.10;;;;;;;;;;5072556;28;20451;-82
2022/05/04 04:53:39;;;;;;;25.70;23.83;;;;;;;;;;5072155;28;20461;-82
2022/05/04 04:56:06;;;;;;;26.47;23.87;;;;;;;;;;5072360;28;20449;-81
2022/05/04 04:58:34;;;;;;;26.63;24.13;;;;;;;;;;5072652;28;20434;-82
2022/05/04 05:01:01;;;;;;;25.35;23.23;;;;;;;;;;5073257;28;20412;-82
2022/05/04 05:03:30;;;;;;;25.57;23.57;;;;;;;;;;5071901;28;20638;-82
2022/05/04 05:05:57;;;;;;;26.80;24.40;;;;;;;;;;5071954;28;20410;-82
2022/05/04 05:08:26;;;;;;;27.57;25.50;;;;;;;;;;5072030;28;20438;-82
2022/05/04 05:10:53;;;;;;;25.90;23.80;;;;;;;;;;5074431;28;20443;-83
2022/05/04 05:13:20;;;;;;;26.80;24.65;;;;;;;;;;5075891;28;20434;-83
2022/05/04 05:18:34;;;;;;;26.37;23.93;;;;;;;;;;5075574;28;20519;-82
2022/05/04 05:21:01;;;;;;;28.07;25.17;;;;;;;;;;5075494;28;20439;-82
2022/05/04 05:23:29;;;;;;;26.47;24.27;;;;;;;;;;5075360;28;20442;-82
2022/05/04 05:25:56;;;;;;;27.30;24.97;;;;;;;;;;5075601;28;20442;-81
2022/05/04 05:28:24;;;;;;;27.07;24.87;;;;;;;;;;5075121;28;20934;-82
2022/05/04 05:30:51;;;;;;;26.77;24.57;;;;;;;;;;5075193;28;20434;-82
2022/05/04 05:33:18;;;;;;;27.07;24.50;;;;;;;;;;5074923;28;20449;-82
2022/05/04 05:35:47;;;;;;;28.50;25.63;;;;;;;;;;5075170;28;20822;-82
2022/05/04 05:38:15;;;;;;;26.93;24.90;;;;;;;;;;5075542;28;20439;-82
2022/05/04 05:40:43;;;;;;;27.37;25.23;;;;;;;;;;5075022;28;20453;-82
2022/05/04 05:43:10;;;;;;;26.30;24.10;;;;;;;;;;5074940;28;20478;-81
2022/05/04 05:45:38;;;;;;;26.10;23.90;;;;;;;;;;5075075;28;20501;-81
2022/05/04 05:48:05;;;;;;;27.60;25.00;;;;;;;;;;5074951;28;20439;-81
2022/05/04 05:50:34;;;;;;;26.10;24.20;;;;;;;;;;5075006;28;20434;-81
2022/05/04 05:53:03;;;;;;;27.07;24.80;;;;;;;;;;5074737;28;20469;-81
2022/05/04 05:55:31;;;;;;;27.77;25.60;;;;;;;;;;5074881;28;20447;-81
2022/05/04 05:57:58;;;;;;;25.30;23.10;;;;;;;;;;5074816;28;20533;-81
2022/05/04 06:00:26;;;;;;;27.30;24.90;;;;;;;;;;5074722;28;20763;-81
2022/05/04 06:02:54;;;;;;;28.30;25.90;;;;;;;;;;5074798;28;20461;-80
2022/05/04 06:05:21;;;;;;;25.70;23.70;;;;;;;;;;5074554;28;20474;-82
2022/05/04 06:07:49;;;;;;;26.33;24.33;;;;;;;;;;5074884;28;20931;-81
2022/05/04 06:10:18;;;;;;;26.53;24.53;;;;;;;;;;5068231;28;20936;-83
2022/05/04 06:12:45;;;;;;;25.67;23.50;;;;;;;;;;5054734;28;20824;-82
2022/05/04 06:15:14;;;;;;;27.50;25.03;;;;;;;;;;5054944;28;20443;-84
2022/05/04 06:17:44;;;;;;;27.10;24.90;;;;;;;;;;5054444;28;20460;-85
2022/05/04 06:20:11;;;;;;;26.83;24.63;;;;;;;;;;5054943;28;20534;-87
2022/05/04 06:22:38;;;;;;;25.90;23.87;;;;;;;;;;5054156;28;20462;-81
2022/05/04 06:25:06;;;;;;;26.97;24.73;;;;;;;;;;5054302;28;20483;-81
2022/05/04 06:27:35;;;;;;;25.13;23.10;;;;;;;;;;5054167;28;20434;-80
2022/05/04 06:35:32;;;;;;;25.87;23.90;;;;;;;;;;5053983;28;20438;-81
2022/05/04 06:37:59;;;;;;;25.80;23.70;;;;;;;;;;5054115;28;20440;-80
2022/05/04 06:40:27;;;;;;;26.17;23.80;;;;;;;;;;5054089;28;20455;-84
2022/05/04 06:42:55;;;;;;;27.13;24.63;;;;;;;;;;5053951;28;20470;-82
2022/05/04 06:45:23;;;;;;;25.17;23.37;;;;;;;;;;5053748;28;21078;-81
2022/05/04 06:47:50;;;;;;;25.70;23.80;;;;;;;;;;5053799;28;20451;-81
2022/05/04 06:50:18;;;;;;;26.93;24.30;;;;;;;;;;5054126;28;20440;-80
2022/05/04 06:52:45;;;;;;;26.30;23.90;;;;;;;;;;5053524;28;20917;-81
2022/05/04 06:55:13;;;;;;;26.73;24.47;;;;;;;;;;5053765;28;20979;-80
2022/05/04 06:57:41;;;;;;;25.40;23.53;;;;;;;;;;5053419;28;20465;-81
2022/05/04 07:00:10;;;;;;;26.10;24.30;;;;;;;;;;5053566;28;20431;-81
2022/05/04 07:02:37;;;;;;;26.00;24.07;;;;;;;;;;5053325;28;20435;-81
2022/05/04 07:05:05;;;;;;;26.83;24.73;;;;;;;;;;5053737;28;20460;-81
2022/05/04 07:07:33;;;;;;;25.90;23.83;;;;;;;;;;5053660;28;20410;-82
2022/05/04 07:10:00;;;;;;;26.37;24.33;;;;;;;;;;5053770;28;20443;-81
2022/05/04 07:12:28;;;;;;;27.53;25.53;;;;;;;;;;5053684;28;20451;-80
2022/05/04 07:14:56;;;;;;;26.97;24.70;;;;;;;;;;5053641;28;20438;-81
2022/05/04 07:17:24;;;;;;;26.33;23.50;;;;;;;;;;5053157;28;20933;-82
2022/05/04 07:19:52;;;;;;;27.50;24.13;;;;;;;;;;5053428;28;20447;-81
2022/05/04 07:22:19;;;;;;;25.67;23.57;;;;;;;;;;5053188;28;20542;-80
2022/05/04 07:24:47;;;;;;;25.47;23.67;;;;;;;;;;5053035;28;20479;-80
2022/05/04 07:27:14;;;;;;;27.40;24.77;;;;;;;;;;5053010;28;20762;-81
2022/05/04 07:29:42;;;;;;;27.97;25.47;;;;;;;;;;5053259;28;20454;-81
2022/05/04 07:32:10;;;;;;;26.00;23.63;;;;;;;;;;5053029;28;20418;-81
2022/05/04 07:34:38;;;;;;;26.30;24.33;;;;;;;;;;5053196;28;20480;-81
2022/05/04 07:37:06;;;;;;;26.90;24.33;;;;;;;;;;5053179;28;20438;-82
2022/05/04 07:42:24;;;;;;;27.37;25.00;;;;;;;;;;5052892;28;20428;-81
2022/05/04 07:44:51;;;;;;;25.27;23.53;;;;;;;;;;5052959;28;20796;-82
2022/05/04 07:47:19;;;;;;;26.00;23.77;;;;;;;;;;5052842;28;20442;-81
2022/05/04 07:49:49;;;;;;;27.77;25.53;;;;;;;;;;5052759;28;20896;-81
2022/05/04 07:52:16;;;;;;;25.60;23.70;;;;;;;;;;5052851;28;20910;-81
2022/05/04 07:54:43;;;;;;;25.60;23.37;;;;;;;;;;5052963;28;20443;-80
2022/05/04 07:57:11;;;;;;;27.23;24.80;;;;;;;;;;5052530;28;20454;-81
2022/05/04 07:59:38;;;;;;;26.87;24.83;;;;;;;;;;5053002;28;20417;-80
2022/05/04 08:04:52;;;;;;;26.10;23.93;;;;;;;;;;5052701;28;20465;-81
2022/05/04 08:07:20;;;;;;;24.87;23.03;;;;;;;;;;5052711;28;20410;-82
2022/05/04 08:09:47;;;;;;;25.63;23.60;;;;;;;;;;5052738;28;20466;-81
2022/05/04 08:12:15;;;;;;;26.20;24.03;;;;;;;;;;5052585;28;20401;-81
2022/05/04 08:14:42;;;;;;;25.63;23.10;;;;;;;;;;5052524;28;20436;-81
2022/05/04 08:17:09;;;;;;;25.00;23.20;;;;;;;;;;5052518;28;20445;-81
2022/05/04 08:19:37;;;;;;;26.30;24.00;;;;;;;;;;5052739;28;20438;-81
2022/05/04 08:22:06;;;;;;;25.73;23.90;;;;;;;;;;5052353;28;20428;-81
2022/05/04 08:24:33;;;;;;;26.07;23.63;;;;;;;;;;5052497;28;20439;-82
2022/05/04 08:27:00;;;;;;;26.60;24.50;;;;;;;;;;5052405;28;20843;-81
2022/05/04 08:29:27;;;;;;;25.67;23.60;;;;;;;;;;5052521;28;20413;-81
2022/05/04 08:31:56;;;;;;;25.93;23.87;;;;;;;;;;5052233;28;20418;-81
2022/05/04 08:34:24;;;;;;;26.10;23.97;;;;;;;;;;5052466;28;20474;-81
2022/05/04 08:36:51;;;;;;;26.20;24.00;;;;;;;;;;5052455;28;20437;-81
2022/05/04 08:39:20;;;;;;;26.47;24.10;;;;;;;;;;5052212;28;20402;-81
2022/05/04 08:41:47;;;;;;;26.07;23.43;;;;;;;;;;5052582;28;20422;-84
2022/05/04 08:44:14;;;;;;;27.10;24.80;;;;;;;;;;5052591;28;20760;-82
2022/05/04 08:46:42;;;;;;;27.83;24.37;;;;;;;;;;5055682;28;20529;-81
2022/05/04 08:49:12;;;;;;;27.30;25.03;;;;;;;;;;5056457;28;20441;-81
2022/05/04 08:51:40;;;;;;;27.03;24.73;;;;;;;;;;5056173;28;20461;-81
2022/05/04 08:54:08;;;;;;;28.13;25.10;;;;;;;;;;5056027;28;20447;-81
2022/05/04 08:56:37;;;;;;;26.00;23.80;;;;;;;;;;5056118;28;20511;-81
2022/05/04 08:59:05;;;;;;;26.83;24.10;;;;;;;;;;5056275;28;20431;-81
2022/05/04 09:01:32;;;;;;;26.47;24.07;;;;;;;;;;5055811;28;20439;-81
2022/05/04 09:04:00;;;;;;;26.90;24.27;;;;;;;;;;5055778;28;20431;-82
2022/05/04 09:06:28;;;;;;;25.70;23.33;;;;;;;;;;5055791;28;21039;-81
2022/05/04 09:08:56;;;;;;;26.17;24.00;;;;;;;;;;5055691;28;20932;-81
2022/05/04 09:11:24;;;;;;;25.77;23.57;;;;;;;;;;5055798;28;20433;-82
2022/05/04 09:13:53;;;;;;;26.50;24.30;;;;;;;;;;5055909;28;20818;-80
2022/05/04 09:16:27;;;;;;;27.17;25.00;;;;;;;;;;5055742;28;20447;-80
2022/05/04 09:18:54;;;;;;;27.43;25.20;;;;;;;;;;5055869;28;20435;-81
2022/05/04 09:21:23;;;;;;;27.83;25.53;;;;;;;;;;5055382;28;20410;-82
2022/05/04 09:23:52;;;;;;;27.03;24.73;;;;;;;;;;5055705;28;20432;-81
2022/05/04 09:26:21;;;;;;;26.53;24.13;;;;;;;;;;5055463;28;20833;-81
2022/05/04 09:28:50;;;;;;;28.30;26.00;;;;;;;;;;5055677;28;20432;-81
2022/05/04 09:31:20;;;;;;;26.37;24.23;;;;;;;;;;5055474;28;20442;-80
2022/05/04 09:33:53;;;;;;;27.60;25.13;;;;;;;;;;5055438;28;20481;-81
2022/05/04 09:36:31;;;;;;;26.50;24.50;;;;;;;;;;5055247;28;20456;-82
2022/05/04 09:47:24;;;;;;;28.30;25.73;;;;;;;;;;5055076;28;20549;-81
2022/05/04 09:49:53;;;;;;;26.83;24.40;;;;;;;;;;5054923;28;20472;-81
2022/05/04 09:52:23;;;;;;;27.33;25.27;;;;;;;;;;5055154;28;20420;-81
2022/05/04 09:54:52;;;;;;;27.50;25.07;;;;;;;;;;5055033;28;20775;-81
2022/05/04 09:57:21;;;;;;;27.40;25.40;;;;;;;;;;5054135;28;20967;-81
2022/05/04 09:59:48;;;;;;;29.37;26.50;;;;;;;;;;5054788;28;20417;-81
2022/05/04 10:02:16;;;;;;;29.57;27.27;;;;;;;;;;5054680;28;20410;-81
2022/05/04 10:04:46;;;;;;;29.17;26.73;;;;;;;;;;5055398;28;20458;-81
2022/05/04 10:07:13;;;;;;;29.00;26.83;;;;;;;;;;5053694;28;20988;-80
2022/05/04 10:09:41;;;;;;;30.50;27.30;;;;;;;;;;5054904;28;20447;-80
2022/05/04 10:12:09;;;;;;;28.20;25.63;;;;;;;;;;5053852;28;20422;-81
2022/05/04 10:14:37;;;;;;;27.70;25.43;;;;;;;;;;5054763;28;20422;-81
2022/05/04 10:17:08;;;;;;;28.57;26.10;;;;;;;;;;5054407;28;20438;-81
2022/05/04 10:19:38;;;;;;;29.00;26.60;;;;;;;;;;5054478;28;20775;-82
2022/05/04 10:22:09;;;;;;;31.33;26.37;;;;;;;;;;5054367;28;20440;-81
2022/05/04 10:24:37;;;;;;;29.07;26.70;;;;;;;;;;5054519;28;20461;-82
2022/05/04 10:27:17;;;;;;;28.20;26.10;;;;;;;;;;5054066;28;20819;-81
2022/05/04 10:32:33;;;;;;;28.60;26.50;;;;;;;;;;5036929;28;20410;-81
2022/05/04 10:35:24;;;;;;;28.63;26.30;;;;;;;;;;5054234;28;20425;-81
2022/05/04 10:38:09;;;;;;;28.63;26.37;;;;;;;;;;5043736;28;20936;-82
2022/05/04 10:40:40;;;;;;;29.33;26.57;;;;;;;;;;5054144;28;20457;-82
2022/05/04 10:43:07;;;;;;;28.70;26.30;;;;;;;;;;5054234;28;20940;-82
2022/05/04 10:45:35;;;;;;;28.60;26.00;;;;;;;;;;5054157;28;20947;-82
2022/05/04 10:48:14;;;;;;;27.57;25.33;;;;;;;;;;5054115;28;20459;-82
2022/05/04 10:50:48;;;;;;;28.53;26.33;;;;;;;;;;5053912;28;20476;-82
2022/05/04 10:53:22;;;;;;;28.80;26.43;;;;;;;;;;5054179;28;20414;-82
2022/05/04 10:55:57;;;;;;;27.40;25.40;;;;;;;;;;5054147;28;20425;-82
2022/05/04 10:58:43;;;;;;;27.33;25.30;;;;;;;;;;5054455;28;20887;-82
2022/05/04 11:01:12;;;;;;;29.47;27.10;;;;;;;;;;5053815;28;20447;-82
2022/05/04 11:03:49;;;;;;;28.67;26.23;;;;;;;;;;5051288;28;20831;-82
2022/05/04 11:06:25;;;;;;;28.27;26.00;;;;;;;;;;5054294;28;20456;-82
2022/05/04 11:08:54;;;;;;;29.37;26.83;;;;;;;;;;5052756;28;20433;-82
2022/05/04 11:11:24;;;;;;;31.63;29.00;;;;;;;;;;5052616;28;21280;-82
2022/05/04 11:13:51;;;;;;;29.37;27.17;;;;;;;;;;5053690;28;20450;-82
2022/05/04 11:16:19;;;;;;;30.33;27.70;;;;;;;;;;5052729;28;20463;-82
2022/05/04 11:18:46;;;;;;;30.53;27.90;;;;;;;;;;5053528;28;20431;-82
2022/05/04 11:21:14;;;;;;;30.70;28.20;;;;;;;;;;5053360;28;20458;-82
2022/05/04 11:23:46;;;;;;;30.70;27.87;;;;;;;;;;5053163;28;20439;-82
2022/05/04 11:26:17;;;;;;;30.03;27.60;;;;;;;;;;5053147;28;20499;-82
2022/05/04 11:28:46;;;;;;;30.00;27.30;;;;;;;;;;5053112;28;20900;-82
2022/05/04 11:31:14;;;;;;;29.27;26.87;;;;;;;;;;5053245;28;20445;-81
2022/05/04 11:33:43;;;;;;;31.40;28.80;;;;;;;;;;5053352;28;20447;-83
2022/05/04 11:36:10;;;;;;;30.77;28.03;;;;;;;;;;5053439;28;20453;-82
2022/05/04 11:38:38;;;;;;;29.23;27.00;;;;;;;;;;5053135;28;20410;-83
2022/05/04 11:41:08;;;;;;;28.97;26.77;;;;;;;;;;5053077;28;20966;-82
2022/05/04 11:43:36;;;;;;;30.57;27.63;;;;;;;;;;5053134;28;20435;-82
2022/05/04 11:46:07;;;;;;;29.53;27.27;;;;;;;;;;5052975;28;20465;-82
2022/05/04 11:48:36;;;;;;;29.57;27.37;;;;;;;;;;5053013;28;20443;-83
2022/05/04 11:51:03;;;;;;;31.23;28.73;;;;;;;;;;5052995;28;20470;-82
2022/05/04 11:53:30;;;;;;;29.90;27.47;;;;;;;;;;5053002;28;20439;-82
2022/05/04 11:55:59;;;;;;;30.87;28.47;;;;;;;;;;5052822;28;20463;-82
2022/05/04 11:58:28;;;;;;;31.57;28.77;;;;;;;;;;5053138;28;20928;-82
2022/05/04 12:00:55;;;;;;;30.43;28.00;;;;;;;;;;5052816;28;20926;-82
2022/05/04 12:03:25;;;;;;;31.80;29.30;;;;;;;;;;5052657;28;20417;-82
2022/05/04 12:05:52;;;;;;;27.90;25.80;;;;;;;;;;5052736;28;20457;-83
2022/05/04 12:08:20;;;;;;;28.67;26.43;;;;;;;;;;5052664;28;20469;-82
2022/05/04 12:10:48;;;;;;;31.40;28.70;;;;;;;;;;5052658;28;20440;-81
2022/05/04 12:13:16;;;;;;;29.77;27.50;;;;;;;;;;5052948;28;20427;-82
2022/05/04 12:15:44;;;;;;;31.73;28.70;;;;;;;;;;5052602;28;20410;-82
2022/05/04 12:18:13;;;;;;;30.13;27.83;;;;;;;;;;5052823;28;20474;-82
2022/05/04 12:20:44;;;;;;;31.20;28.30;;;;;;;;;;5056623;28;20421;-82
2022/05/04 12:23:12;;;;;;;29.50;27.10;;;;;;;;;;5056800;28;20449;-82
2022/05/04 12:25:40;;;;;;;29.63;27.27;;;;;;;;;;5056695;28;20528;-81
2022/05/04 12:28:08;;;;;;;29.40;27.20;;;;;;;;;;5056686;28;20414;-82
2022/05/04 12:33:29;;;;;;;29.23;27.13;;;;;;;;;;5056453;28;20465;-81
2022/05/04 12:35:59;;;;;;;30.37;27.63;;;;;;;;;;5056600;28;20429;-81
2022/05/04 12:38:26;;;;;;;31.83;29.30;;;;;;;;;;5056356;28;20426;-81
2022/05/04 12:40:54;;;;;;;30.80;28.47;;;;;;;;;;5056595;28;20460;-81
2022/05/04 12:43:24;;;;;;;29.80;27.40;;;;;;;;;;5058303;28;20417;-82
2022/05/04 12:45:51;;;;;;;32.70;29.90;;;;;;;;;;5067216;28;20406;-82
2022/05/04 12:48:23;;;;;;;32.03;29.60;;;;;;;;;;5057478;28;20439;-81
2022/05/04 12:50:51;;;;;;;33.20;30.70;;;;;;;;;;5056271;28;20417;-89
2022/05/04 12:53:21;;;;;;;33.70;30.90;;;;;;;;;;5056195;28;20451;-82
2022/05/04 12:58:33;;;;;;;30.10;27.77;;;;;;;;;;5056023;28;20883;-82
2022/05/04 13:01:02;;;;;;;28.87;27.03;;;;;;;;;;5054748;28;20509;-82
2022/05/04 13:03:29;;;;;;;29.93;27.73;;;;;;;;;;5056179;28;20417;-82
2022/05/04 13:05:56;;;;;;;31.60;28.83;;;;;;;;;;5055745;28;20793;-83
2022/05/04 13:08:25;;;;;;;32.00;29.03;;;;;;;;;;5056125;28;20462;-82
2022/05/04 13:10:53;;;;;;;30.23;28.13;;;;;;;;;;5056110;28;20809;-82
2022/05/04 13:13:21;;;;;;;31.63;28.93;;;;;;;;;;5056010;28;20880;-83
2022/05/04 13:15:51;;;;;;;32.50;30.07;;;;;;;;;;5055482;28;20410;-83
2022/05/04 13:18:18;;;;;;;31.73;29.13;;;;;;;;;;5055938;28;20414;-82
2022/05/04 13:20:46;;;;;;;31.50;29.00;;;;;;;;;;5055553;28;20418;-83
2022/05/04 13:23:13;;;;;;;31.43;28.80;;;;;;;;;;5055371;28;20448;-83
2022/05/04 13:25:42;;;;;;;31.93;29.33;;;;;;;;;;5055479;28;20439;-82
2022/05/04 13:28:09;;;;;;;30.53;27.73;;;;;;;;;;5055354;28;20481;-82
2022/05/04 13:30:37;;;;;;;31.63;29.40;;;;;;;;;;5054580;28;20481;-81
2022/05/04 13:33:05;;;;;;;31.07;28.57;;;;;;;;;;5055209;28;20444;-82
2022/05/04 13:35:32;;;;;;;32.07;29.67;;;;;;;;;;5055592;28;20443;-83
2022/05/04 13:38:00;;;;;;;32.90;30.30;;;;;;;;;;5055325;28;20451;-83
2022/05/04 13:40:27;;;;;;;30.83;28.73;;;;;;;;;;5055243;28;20429;-83
2022/05/04 13:42:56;;;;;;;32.73;30.10;;;;;;;;;;5055180;28;20443;-82
2022/05/04 13:45:23;;;;;;;33.87;31.10;;;;;;;;;;5055237;28;20462;-83
2022/05/04 13:47:50;;;;;;;33.23;30.60;;;;;;;;;;5055529;28;20465;-82
2022/05/04 13:53:15;;;;;;;33.93;31.10;;;;;;;;;;5055080;28;20890;-83
2022/05/04 13:55:43;;;;;;;34.47;31.90;;;;;;;;;;5055152;28;20450;-82
2022/05/04 13:58:12;;;;;;;37.53;34.90;;;;;;;;;;5054717;28;20507;-82
2022/05/04 14:00:40;;;;;;;32.30;29.60;;;;;;;;;;5055186;28;20413;-82
2022/05/04 14:03:07;;;;;;;32.33;29.73;;;;;;;;;;5054662;28;20466;-82
2022/05/04 14:05:35;;;;;;;32.60;29.83;;;;;;;;;;5054696;28;20968;-83
2022/05/04 14:08:05;;;;;;;31.60;29.00;;;;;;;;;;5054637;28;21192;-83
2022/05/04 14:10:32;;;;;;;33.10;30.53;;;;;;;;;;5054802;28;20432;-82
2022/05/04 14:13:00;;;;;;;33.00;30.37;;;;;;;;;;5054832;28;20418;-82
2022/05/04 14:15:29;;;;;;;32.17;29.63;;;;;;;;;;5054420;28;21265;-82
2022/05/04 14:17:57;;;;;;;31.10;28.63;;;;;;;;;;5054817;28;20453;-82
2022/05/04 14:20:24;;;;;;;33.30;30.90;;;;;;;;;;5054396;28;20917;-82
2022/05/04 14:22:52;;;;;;;32.77;30.37;;;;;;;;;;5054294;28;20766;-83
2022/05/04 14:25:20;;;;;;;32.60;29.30;;;;;;;;;;5054762;28;20435;-83
2022/05/04 14:27:47;;;;;;;33.10;30.60;;;;;;;;;;5054337;28;21076;-82
2022/05/04 14:30:15;;;;;;;33.63;31.10;;;;;;;;;;5054678;28;20435;-83
2022/05/04 14:32:44;;;;;;;34.90;32.40;;;;;;;;;;5054112;28;20467;-82
2022/05/04 14:35:12;;;;;;;34.40;31.87;;;;;;;;;;5054295;28;20418;-82
2022/05/04 14:37:39;;;;;;;32.20;29.80;;;;;;;;;;5054593;28;20888;-82
2022/05/04 14:40:07;;;;;;;32.93;30.60;;;;;;;;;;5054317;28;20479;-83
2022/05/04 14:42:34;;;;;;;32.50;29.97;;;;;;;;;;5054166;28;20406;-83
2022/05/04 14:45:02;;;;;;;33.27;30.67;;;;;;;;;;5053987;28;20406;-83
2022/05/04 14:47:29;;;;;;;33.50;30.97;;;;;;;;;;5054010;28;20482;-83
2022/05/04 14:49:58;;;;;;;32.20;29.70;;;;;;;;;;5054229;28;20822;-83
2022/05/04 14:52:25;;;;;;;32.97;30.67;;;;;;;;;;5053976;28;20414;-83
2022/05/04 14:54:52;;;;;;;32.10;29.80;;;;;;;;;;5054124;28;20540;-82
2022/05/04 14:57:20;;;;;;;31.33;29.17;;;;;;;;;;5053949;28;20460;-82
2022/05/04 14:59:47;;;;;;;31.17;28.83;;;;;;;;;;5054078;28;20410;-83
2022/05/04 15:02:15;;;;;;;31.17;28.80;;;;;;;;;;5053923;28;20410;-83
2022/05/04 15:07:28;;;;;;;31.03;28.67;;;;;;;;;;5053847;28;20528;-83
2022/05/04 15:09:56;;;;;;;31.40;28.90;;;;;;;;;;5053790;28;20436;-83